Terminal Aerodrome Forecast
Issued by NWS

Home | Current Version | Previous Version | Text Only | Print | Product List | Glossary On
Versions: 1 2 3 4 5 6 7 8 9 10 11 12 13 14 15 16 17 18 19 20 21 22 23 24 25
000
FTUS44 KTSA 290600 AAB
TAFRVS
TAF AMD
KRVS 290644Z 2907/3006 15005KT P6SM VCTS BKN035CB BKN250
     FM290700 13007KT 4SM -TSRA OVC040CB
      TEMPO 2907/2909 1SM BR BKN025
     FM291800 21006KT P6SM OVC250
     FM300000 16007KT P6SM OVC100 PROB30 3000/3006 -TSRA BKN040CB=

USA.gov is the U.S. government's official web portal to all federal, state and local government web resources and services.